San Jose De Chiquitos, Bolivia
Current Conditions -  °F | °C
As of 8:00 AM on Saturday 25 Oct 2014 (Local Time) from SLVR Reporting Station
Thunderstorm Thunderstorm  
Wind Chill: 73°   Ceiling: 1700
Heat Index: 73°   Visibility: 1.2mi
Dew Point: 70°   Wind: 9mph
Humidity: 88%   Direction: 120°ESE
Pressure: 29.94"   Gusts: NA
Location:  17.84°S, 60.73°W
Report Text: SLVR 251200Z 12008KT 2000 TSRA BKN017 FEW030CB BKN070 23/21 Q1014
Loading
Personal Weather Stations






























Interactive Weather Map
Tropical Storm Tracking
New forecast layout! Learn more

10-Day Weather Forecast

Advertisements
Track Severe Weather on mobile